메인 페이지
METAR-TAF:

METAR-TAF

공항 :

Iowa County Airport

Mineral Point, 위스콘신, 미국

위도: 42-53-07N, 경도: 090-13-55W, 고도: 359m

현재 날씨관측

예보는 19분 전, 14:35시(UTC)에 발표되었습니다.
동북동9kt
온도 6°C
습도 100%
기압 1017 hPa
시정: 2.0km
고도 500ft 상공 흐림
강한비

METAR: KMRJ 221435Z AUTO 07009KT 1 1/4SM +RA OVC005 06/06 A3004 RMK AO2 VIS 1/2V5 P0017

시각: 09:54 (14:54 UTC)


TAF: 누락

4,000개 이상의 공항 관측 자료 및 예보 (METAR 및 TAF 보고).

지도상에서 검색 가능한 기상관측소가 노란 점과 빨간 점으로 표시되어 있습니다.

기상관측소 명을 보려면 표시 위로 마우스를 이동하세요.

날씨 관측과 예보를 보려면 클릭하세요.

지도 변경 : 확대하려면 엑스 표시가 있는 녹색 버튼, 축소하려면 빼기 표시가 있는 녹색 버튼, 다음 페이지의 지도를 보려면 녹색 화살표를 클릭하세요.


METAR-TAF: